createdAt,value
2018-02-04T00:00:26.110Z,55.93
2018-02-04T00:00:57.769Z,56.01
2018-02-04T00:01:29.389Z,56.28
2018-02-04T00:02:01.022Z,56.18
2018-02-04T00:02:32.642Z,56.03
2018-02-04T00:03:04.261Z,56.10
2018-02-04T00:03:35.890Z,56.20
2018-02-04T00:04:07.742Z,56.36
2018-02-04T00:04:39.370Z,56.50
2018-02-04T00:05:10.994Z,56.67
2018-02-04T00:05:42.617Z,56.90
2018-02-04T00:06:14.246Z,56.81
2018-02-04T00:06:45.869Z,56.82
2018-02-04T00:07:17.493Z,56.73
2018-02-04T00:07:49.122Z,56.69
2018-02-04T00:08:20.750Z,56.69
2018-02-04T00:08:52.369Z,56.80
2018-02-04T00:09:24.038Z,56.79
2018-02-04T00:09:55.658Z,56.94
2018-02-04T00:10:27.305Z,57.03
2018-02-04T00:10:58.934Z,57.05
2018-02-04T00:11:30.557Z,56.80
2018-02-04T00:12:02.188Z,56.63
2018-02-04T00:12:33.812Z,56.78
2018-02-04T00:13:05.434Z,56.85
2018-02-04T00:13:37.054Z,56.87
2018-02-04T00:14:08.677Z,56.72
2018-02-04T00:14:40.297Z,56.82
2018-02-04T00:15:11.925Z,56.83
2018-02-04T00:15:43.545Z,56.76
2018-02-04T00:16:15.181Z,56.71
2018-02-04T00:16:46.809Z,56.86
2018-02-04T00:17:18.429Z,57.02
2018-02-04T00:17:50.049Z,56.92
2018-02-04T00:18:21.673Z,56.86
2018-02-04T00:18:53.297Z,56.97
2018-02-04T00:19:24.926Z,56.96
2018-02-04T00:19:56.545Z,56.96
2018-02-04T00:20:28.170Z,57.19
2018-02-04T00:20:59.793Z,57.09
2018-02-04T00:21:31.422Z,57.00
2018-02-04T00:22:03.050Z,57.26
2018-02-04T00:22:34.678Z,57.18
2018-02-04T00:23:06.365Z,57.37
2018-02-04T00:23:37.986Z,57.18
2018-02-04T00:24:09.609Z,57.28
2018-02-04T00:24:41.254Z,57.06
2018-02-04T00:25:12.878Z,57.19
2018-02-04T00:25:44.530Z,57.43
2018-02-04T00:26:16.153Z,57.21
2018-02-04T00:26:47.773Z,56.97
2018-02-04T00:27:19.397Z,57.19
2018-02-04T00:27:51.018Z,56.97
2018-02-04T00:28:22.681Z,57.22
2018-02-04T00:28:54.306Z,57.06
2018-02-04T00:29:25.933Z,57.01
2018-02-04T00:29:57.563Z,57.16
2018-02-04T00:30:29.180Z,56.98
2018-02-04T00:31:00.806Z,57.08
2018-02-04T00:31:32.425Z,57.01
2018-02-04T00:32:04.066Z,57.30
2018-02-04T00:32:35.686Z,57.26
2018-02-04T00:33:07.309Z,57.04
2018-02-04T00:33:38.934Z,56.92
2018-02-04T00:34:10.596Z,56.95
2018-02-04T00:34:42.221Z,57.25
2018-02-04T00:35:13.893Z,57.26
2018-02-04T00:35:45.513Z,57.09
2018-02-04T00:36:17.134Z,57.21
2018-02-04T00:36:48.757Z,57.17
2018-02-04T00:37:20.381Z,57.23
2018-02-04T00:37:52.033Z,57.31
2018-02-04T00:38:23.669Z,57.00
2018-02-04T00:38:55.298Z,57.14
2018-02-04T00:39:26.925Z,57.09
2018-02-04T00:39:58.556Z,57.07
2018-02-04T00:40:30.230Z,57.23
2018-02-04T00:41:01.853Z,57.18
2018-02-04T00:41:33.474Z,57.12
2018-02-04T00:42:05.094Z,57.28
2018-02-04T00:42:36.719Z,57.20
2018-02-04T00:43:08.350Z,57.36
2018-02-04T00:43:39.980Z,57.32
2018-02-04T00:44:11.650Z,57.38
2018-02-04T00:44:43.257Z,57.45
2018-02-04T00:45:14.881Z,57.34
2018-02-04T00:45:46.557Z,57.35
2018-02-04T00:46:18.177Z,57.39
2018-02-04T00:46:49.797Z,57.37
2018-02-04T00:47:21.418Z,57.33
2018-02-04T00:47:53.046Z,57.15
2018-02-04T00:48:24.670Z,57.18
2018-02-04T00:48:56.618Z,57.73
2018-02-04T00:49:28.241Z,57.29
2018-02-04T00:49:59.861Z,57.36
2018-02-04T00:50:31.489Z,57.48
2018-02-04T00:51:03.173Z,57.31
2018-02-04T00:51:34.793Z,57.36
2018-02-04T00:52:06.426Z,57.35
2018-02-04T00:52:38.051Z,57.38
2018-02-04T00:53:09.673Z,57.27
2018-02-04T00:53:41.293Z,57.30
2018-02-04T00:54:12.913Z,57.39
2018-02-04T00:54:44.537Z,57.42
2018-02-04T00:55:16.255Z,57.42
2018-02-04T00:55:47.881Z,57.35
2018-02-04T00:56:19.542Z,57.33
2018-02-04T00:56:51.161Z,57.34
2018-02-04T00:57:22.781Z,57.34
2018-02-04T00:57:54.401Z,57.54
2018-02-04T00:58:26.054Z,57.57
2018-02-04T00:58:57.692Z,57.43
2018-02-04T00:59:29.313Z,57.46
2018-02-04T01:00:00.942Z,57.37
2018-02-04T01:00:32.569Z,57.63
2018-02-04T01:01:04.211Z,57.57
2018-02-04T01:01:35.878Z,57.71
2018-02-04T01:02:07.501Z,57.56
2018-02-04T01:02:39.134Z,57.60
2018-02-04T01:03:10.757Z,57.48
2018-02-04T01:03:42.382Z,57.51
2018-02-04T01:04:14.011Z,57.62
2018-02-04T01:04:45.641Z,57.63
2018-02-04T01:05:17.270Z,57.45
2018-02-04T01:05:49.018Z,57.67
2018-02-04T01:06:20.641Z,57.55
2018-02-04T01:06:52.262Z,57.53
2018-02-04T01:07:23.885Z,57.52
2018-02-04T01:07:55.549Z,57.67
2018-02-04T01:08:27.174Z,57.72
2018-02-04T01:08:58.802Z,57.82
2018-02-04T01:09:30.431Z,57.70
2018-02-04T01:10:02.105Z,57.75
2018-02-04T01:10:33.749Z,57.88
2018-02-04T01:11:05.378Z,57.98
2018-02-04T01:11:37.002Z,57.86
2018-02-04T01:12:08.623Z,57.87
2018-02-04T01:12:40.251Z,57.83
2018-02-04T01:13:11.874Z,57.94
2018-02-04T01:13:43.501Z,57.76
2018-02-04T01:14:15.129Z,58.08
2018-02-04T01:14:46.755Z,57.85
2018-02-04T01:15:18.412Z,57.90
2018-02-04T01:15:50.034Z,57.89
2018-02-04T01:16:21.657Z,58.00
2018-02-04T01:16:53.281Z,58.01
2018-02-04T01:17:24.911Z,58.01
2018-02-04T01:17:56.542Z,58.11
2018-02-04T01:18:28.168Z,57.90
2018-02-04T01:18:59.795Z,58.04
2018-02-04T01:19:31.438Z,57.88
2018-02-04T01:20:03.123Z,58.06
2018-02-04T01:20:34.749Z,58.00
2018-02-04T01:21:06.405Z,58.14
2018-02-04T01:21:38.030Z,58.25
2018-02-04T01:22:09.693Z,58.20
2018-02-04T01:22:41.322Z,58.22
2018-02-04T01:23:12.949Z,58.26
2018-02-04T01:23:44.569Z,58.26
2018-02-04T01:24:16.197Z,58.36
2018-02-04T01:24:47.826Z,58.31
2018-02-04T01:25:19.489Z,58.52
2018-02-04T01:25:51.110Z,58.20
2018-02-04T01:26:22.773Z,58.38
2018-02-04T01:26:54.402Z,58.38
2018-02-04T01:27:26.030Z,58.46
2018-02-04T01:27:57.922Z,58.55
2018-02-04T01:28:29.545Z,58.57
2018-02-04T01:29:01.174Z,59.05
2018-02-04T01:29:32.797Z,58.49
2018-02-04T01:30:04.422Z,58.76
2018-02-04T01:30:36.086Z,58.67
2018-02-04T01:31:07.713Z,59.21
2018-02-04T01:31:39.333Z,58.99
2018-02-04T01:32:10.953Z,58.86
2018-02-04T01:32:42.582Z,58.96
2018-02-04T01:33:14.206Z,59.31
2018-02-04T01:33:45.826Z,59.28
2018-02-04T01:34:17.450Z,59.18
2018-02-04T01:34:49.118Z,59.58
2018-02-04T01:35:20.741Z,59.13
2018-02-04T01:35:52.372Z,59.45
2018-02-04T01:36:23.997Z,59.42
2018-02-04T01:36:55.626Z,59.59
2018-02-04T01:37:27.254Z,59.54
2018-02-04T01:37:58.882Z,59.82
2018-02-04T01:38:30.509Z,59.59
2018-02-04T01:39:02.186Z,59.85
2018-02-04T01:39:33.852Z,59.38
2018-02-04T01:40:05.474Z,59.63
2018-02-04T01:40:37.102Z,59.81
2018-02-04T01:41:08.721Z,59.75
2018-02-04T01:41:40.341Z,59.74
2018-02-04T01:42:11.966Z,59.84
2018-02-04T01:42:43.590Z,60.25
2018-02-04T01:43:15.215Z,60.25
2018-02-04T01:43:46.846Z,60.25
2018-02-04T01:44:18.517Z,60.62
2018-02-04T01:44:50.142Z,60.09
2018-02-04T01:45:21.770Z,59.76
2018-02-04T01:45:53.393Z,60.08
2018-02-04T01:46:25.014Z,60.26
2018-02-04T01:46:56.635Z,60.21
2018-02-04T01:47:28.261Z,60.32
2018-02-04T01:47:59.890Z,60.02
2018-02-04T01:48:31.510Z,60.38
2018-02-04T01:49:03.145Z,60.41
2018-02-04T01:49:34.818Z,60.24
2018-02-04T01:50:06.449Z,60.44
2018-02-04T01:50:38.069Z,60.44
2018-02-04T01:51:09.698Z,60.64
2018-02-04T01:51:41.326Z,60.90
2018-02-04T01:52:12.969Z,60.55
2018-02-04T01:52:44.594Z,60.93
2018-02-04T01:53:16.213Z,60.38
2018-02-04T01:53:47.837Z,60.79
2018-02-04T01:54:19.497Z,60.54
2018-02-04T01:54:51.121Z,60.58
2018-02-04T01:55:22.746Z,61.29
2018-02-04T01:55:54.375Z,61.06
2018-02-04T01:56:26.003Z,61.24
2018-02-04T01:56:57.673Z,61.32
2018-02-04T01:57:29.296Z,61.16
2018-02-04T01:58:00.925Z,61.38
2018-02-04T01:58:32.550Z,61.66
2018-02-04T01:59:04.173Z,61.72
2018-02-04T01:59:35.802Z,61.19
2018-02-04T02:00:07.425Z,61.28
2018-02-04T02:00:39.054Z,61.35
2018-02-04T02:01:10.682Z,61.43
2018-02-04T02:01:42.314Z,61.42
2018-02-04T02:02:13.981Z,61.33
2018-02-04T02:02:45.606Z,61.59
2018-02-04T02:03:17.230Z,61.60
2018-02-04T02:03:48.857Z,61.55
2018-02-04T02:04:20.482Z,61.46
2018-02-04T02:04:52.110Z,61.69
2018-02-04T02:05:23.741Z,61.46
2018-02-04T02:05:55.376Z,61.92
2018-02-04T02:06:26.998Z,61.72
2018-02-04T02:06:58.677Z,61.68
2018-02-04T02:07:30.470Z,61.74
2018-02-04T02:08:02.393Z,61.68
2018-02-04T02:08:34.285Z,61.79
2018-02-04T02:09:05.914Z,61.80
2018-02-04T02:09:37.546Z,61.91
2018-02-04T02:10:09.174Z,62.37
2018-02-04T02:10:40.797Z,61.98
2018-02-04T02:11:12.429Z,61.93
2018-02-04T02:11:44.053Z,62.24
2018-02-04T02:12:15.722Z,62.02
2018-02-04T02:12:47.386Z,62.35
2018-02-04T02:13:19.010Z,62.11
2018-02-04T02:13:50.661Z,62.07
2018-02-04T02:14:22.282Z,62.29
2018-02-04T02:14:53.910Z,62.24
2018-02-04T02:15:25.534Z,62.16
2018-02-04T02:15:57.161Z,62.40
2018-02-04T02:16:28.825Z,62.31
2018-02-04T02:17:00.450Z,62.23
2018-02-04T02:17:32.069Z,62.26
2018-02-04T02:18:03.693Z,62.11
2018-02-04T02:18:35.317Z,62.19
2018-02-04T02:19:06.938Z,62.02
2018-02-04T02:19:38.567Z,62.09
2018-02-04T02:20:10.189Z,62.12
2018-02-04T02:20:41.817Z,62.03
2018-02-04T02:21:13.446Z,61.95
2018-02-04T02:21:45.110Z,61.89
2018-02-04T02:22:16.761Z,61.80
2018-02-04T02:22:48.381Z,61.86
2018-02-04T02:23:20.002Z,62.16
2018-02-04T02:23:51.625Z,62.14
2018-02-04T02:24:23.245Z,62.13
2018-02-04T02:24:54.889Z,62.07
2018-02-04T02:25:26.522Z,62.07
2018-02-04T02:25:58.150Z,61.86
2018-02-04T02:26:29.818Z,61.95
2018-02-04T02:27:01.446Z,62.06
2018-02-04T02:27:33.070Z,61.96
2018-02-04T02:28:04.693Z,62.13
2018-02-04T02:28:36.317Z,62.13
2018-02-04T02:29:07.942Z,61.81
2018-02-04T02:29:39.570Z,61.86
2018-02-04T02:30:11.233Z,62.30
2018-02-04T02:30:42.854Z,61.87
2018-02-04T02:31:14.482Z,62.28
2018-02-04T02:31:46.113Z,62.19
2018-02-04T02:32:18.117Z,61.95
2018-02-04T02:32:49.750Z,62.06
2018-02-04T02:33:21.374Z,62.00
2018-02-04T02:33:53.001Z,61.82
2018-02-04T02:34:24.627Z,62.06
2018-02-04T02:34:56.257Z,61.89
2018-02-04T02:35:27.877Z,61.70
2018-02-04T02:35:59.497Z,61.63
2018-02-04T02:36:31.121Z,61.77
2018-02-04T02:37:02.754Z,61.67
2018-02-04T02:37:34.450Z,62.00
2018-02-04T02:38:06.082Z,61.94
2018-02-04T02:38:37.718Z,62.07
2018-02-04T02:39:09.350Z,61.93
2018-02-04T02:39:40.974Z,61.92
2018-02-04T02:40:12.602Z,61.90
2018-02-04T02:40:44.226Z,61.86
2018-02-04T02:41:15.854Z,61.98
2018-02-04T02:41:47.482Z,61.77
2018-02-04T02:42:19.110Z,61.80
2018-02-04T02:42:50.769Z,61.60
2018-02-04T02:43:22.393Z,61.62
2018-02-04T02:43:54.076Z,61.76
2018-02-04T02:44:25.726Z,61.73
2018-02-04T02:44:57.354Z,61.45
2018-02-04T02:45:28.985Z,61.54
2018-02-04T02:46:00.628Z,61.46
2018-02-04T02:46:32.252Z,61.42
2018-02-04T02:47:03.879Z,61.33
2018-02-04T02:47:35.502Z,61.18
2018-02-04T02:48:07.793Z,61.31
2018-02-04T02:48:39.816Z,61.29
2018-02-04T02:49:11.481Z,61.12
2018-02-04T02:49:43.106Z,61.24
2018-02-04T02:50:14.734Z,61.36
2018-02-04T02:50:46.358Z,61.07
2018-02-04T02:51:17.979Z,61.10
2018-02-04T02:51:49.626Z,61.17
2018-02-04T02:52:21.266Z,61.13
2018-02-04T02:52:52.974Z,61.11
2018-02-04T02:53:24.629Z,61.08
2018-02-04T02:53:56.274Z,60.97
2018-02-04T02:54:27.922Z,61.02
2018-02-04T02:54:59.541Z,60.98
2018-02-04T02:55:31.161Z,60.81
2018-02-04T02:56:02.786Z,60.92
2018-02-04T02:56:34.405Z,60.90
2018-02-04T02:57:06.035Z,60.72
2018-02-04T02:57:37.678Z,60.73
2018-02-04T02:58:09.301Z,60.72
2018-02-04T02:58:40.935Z,60.93
2018-02-04T02:59:12.557Z,60.70
2018-02-04T02:59:44.185Z,60.76
2018-02-04T03:00:15.810Z,60.78
2018-02-04T03:00:47.437Z,60.70
2018-02-04T03:01:19.062Z,60.80
2018-02-04T03:01:50.681Z,60.66
2018-02-04T03:02:22.305Z,60.60
2018-02-04T03:02:53.930Z,60.70
2018-02-04T03:03:25.608Z,60.67
2018-02-04T03:03:57.286Z,60.62
2018-02-04T03:04:28.911Z,60.78
2018-02-04T03:05:00.534Z,60.89
2018-02-04T03:05:32.158Z,60.87
2018-02-04T03:06:03.777Z,60.92
2018-02-04T03:06:35.401Z,60.87
2018-02-04T03:07:07.021Z,60.85
2018-02-04T03:07:38.667Z,60.86
2018-02-04T03:08:10.294Z,60.80
2018-02-04T03:08:41.917Z,60.99
2018-02-04T03:09:13.586Z,61.00
2018-02-04T03:09:45.210Z,60.98
2018-02-04T03:10:16.842Z,60.95
2018-02-04T03:10:48.463Z,60.73
2018-02-04T03:11:20.086Z,61.17
2018-02-04T03:11:51.730Z,60.97
2018-02-04T03:12:23.358Z,60.90
2018-02-04T03:12:54.978Z,60.96
2018-02-04T03:13:26.693Z,61.07
2018-02-04T03:13:58.361Z,61.18
2018-02-04T03:14:29.981Z,61.10
2018-02-04T03:15:01.601Z,61.09
2018-02-04T03:15:33.230Z,61.22
2018-02-04T03:16:04.864Z,61.06
2018-02-04T03:16:36.487Z,61.19
2018-02-04T03:17:08.109Z,61.22
2018-02-04T03:17:39.738Z,61.04
2018-02-04T03:18:11.361Z,61.04
2018-02-04T03:18:42.985Z,61.05
2018-02-04T03:19:14.650Z,61.21
2018-02-04T03:19:46.273Z,60.99
2018-02-04T03:20:17.902Z,60.99
2018-02-04T03:20:49.526Z,60.99
2018-02-04T03:21:21.154Z,60.93
2018-02-04T03:21:52.777Z,61.06
2018-02-04T03:22:24.406Z,61.15
2018-02-04T03:22:56.025Z,60.89
2018-02-04T03:23:27.645Z,61.09
2018-02-04T03:23:59.270Z,61.06
2018-02-04T03:24:30.949Z,60.96
2018-02-04T03:25:02.589Z,60.95
2018-02-04T03:25:34.245Z,60.84
2018-02-04T03:26:05.865Z,61.19
2018-02-04T03:26:37.494Z,61.06
2018-02-04T03:27:09.118Z,61.07
2018-02-04T03:27:40.745Z,61.13
2018-02-04T03:28:12.370Z,61.12
2018-02-04T03:28:43.998Z,61.09
2018-02-04T03:29:15.621Z,61.15
2018-02-04T03:29:47.285Z,60.95
2018-02-04T03:30:18.923Z,61.27
2018-02-04T03:30:50.598Z,61.36
2018-02-04T03:31:22.221Z,61.50
2018-02-04T03:31:53.846Z,61.31
2018-02-04T03:32:25.469Z,61.40
2018-02-04T03:32:57.098Z,61.14
2018-02-04T03:33:28.725Z,61.27
2018-02-04T03:34:00.345Z,60.86
2018-02-04T03:34:31.973Z,60.59
2018-02-04T03:35:03.598Z,60.69
2018-02-04T03:35:35.226Z,61.04
2018-02-04T03:36:06.890Z,60.91
2018-02-04T03:36:38.510Z,60.87
2018-02-04T03:37:10.134Z,60.88
2018-02-04T03:37:41.753Z,61.14
2018-02-04T03:38:13.373Z,61.27
2018-02-04T03:38:45.597Z,61.21
2018-02-04T03:39:17.217Z,60.98
2018-02-04T03:39:48.838Z,60.97
2018-02-04T03:40:20.462Z,60.91
2018-02-04T03:40:52.130Z,60.89
2018-02-04T03:41:23.753Z,61.17
2018-02-04T03:41:55.382Z,61.01
2018-02-04T03:42:27.005Z,60.86
2018-02-04T03:42:58.634Z,60.83
2018-02-04T03:43:30.303Z,60.79
2018-02-04T03:44:01.930Z,60.62
2018-02-04T03:44:33.557Z,60.65
2018-02-04T03:45:05.185Z,60.61
2018-02-04T03:45:36.810Z,60.70
2018-02-04T03:46:08.434Z,60.71
2018-02-04T03:46:40.062Z,60.63
2018-02-04T03:47:11.725Z,60.65
2018-02-04T03:47:43.359Z,60.63
2018-02-04T03:48:14.989Z,60.91
2018-02-04T03:48:46.618Z,60.97
2018-02-04T03:49:18.241Z,60.96
2018-02-04T03:49:49.861Z,61.03
2018-02-04T03:50:21.487Z,61.26
2018-02-04T03:50:53.110Z,61.09
2018-02-04T03:51:24.730Z,61.04
2018-02-04T03:51:56.366Z,61.16
2018-02-04T03:52:27.989Z,61.22
2018-02-04T03:52:59.613Z,61.07
2018-02-04T03:53:31.242Z,61.23
2018-02-04T03:54:03.042Z,61.46
2018-02-04T03:54:34.669Z,61.17
2018-02-04T03:55:06.293Z,61.05
2018-02-04T03:55:37.913Z,61.15
2018-02-04T03:56:09.537Z,61.08
2018-02-04T03:56:41.166Z,60.97
2018-02-04T03:57:12.790Z,60.97
2018-02-04T03:57:44.413Z,61.28
2018-02-04T03:58:16.034Z,61.28
2018-02-04T03:58:47.657Z,61.41
2018-02-04T03:59:19.317Z,61.67
2018-02-04T03:59:50.942Z,61.22
2018-02-04T04:00:22.570Z,61.58
2018-02-04T04:00:54.202Z,61.30
2018-02-04T04:01:25.837Z,61.59
2018-02-04T04:01:57.465Z,61.33
2018-02-04T04:02:29.094Z,61.50
2018-02-04T04:03:00.785Z,61.51
2018-02-04T04:03:32.434Z,61.34
2018-02-04T04:04:04.053Z,61.41
2018-02-04T04:04:35.769Z,61.64
2018-02-04T04:05:07.458Z,61.27
2018-02-04T04:05:39.081Z,61.41
2018-02-04T04:06:10.701Z,61.40
2018-02-04T04:06:42.321Z,61.43
2018-02-04T04:07:13.941Z,61.39
2018-02-04T04:07:45.561Z,61.49
2018-02-04T04:08:17.186Z,61.58
2018-02-04T04:08:48.814Z,61.31
2018-02-04T04:09:20.446Z,61.34
2018-02-04T04:09:52.121Z,61.25
2018-02-04T04:10:23.745Z,61.23
2018-02-04T04:10:55.374Z,61.35
2018-02-04T04:11:26.998Z,61.23
2018-02-04T04:11:58.625Z,61.21
2018-02-04T04:12:30.254Z,61.17
2018-02-04T04:13:01.879Z,61.25
2018-02-04T04:13:33.501Z,61.29
2018-02-04T04:14:05.125Z,61.29
2018-02-04T04:14:36.754Z,61.30
2018-02-04T04:15:08.450Z,61.57
2018-02-04T04:15:40.078Z,61.50
2018-02-04T04:16:11.702Z,61.48
2018-02-04T04:16:43.326Z,61.61
2018-02-04T04:17:14.953Z,61.70
2018-02-04T04:17:46.582Z,61.92
2018-02-04T04:18:18.214Z,61.95
2018-02-04T04:18:49.842Z,61.83
2018-02-04T04:19:21.469Z,61.98
2018-02-04T04:19:53.090Z,62.10
2018-02-04T04:20:24.758Z,61.94
2018-02-04T04:20:56.387Z,62.03
2018-02-04T04:21:28.014Z,62.08
2018-02-04T04:21:59.642Z,62.09
2018-02-04T04:22:31.269Z,62.00
2018-02-04T04:23:02.898Z,61.90
2018-02-04T04:23:34.517Z,62.35
2018-02-04T04:24:06.141Z,62.16
2018-02-04T04:24:37.769Z,62.37
2018-02-04T04:25:09.446Z,61.90
2018-02-04T04:25:41.058Z,61.86
2018-02-04T04:26:12.687Z,61.94
2018-02-04T04:26:44.349Z,62.04
2018-02-04T04:27:15.974Z,61.78
2018-02-04T04:27:47.660Z,61.88
2018-02-04T04:28:19.285Z,62.00
2018-02-04T04:28:50.945Z,61.97
2018-02-04T04:29:22.580Z,61.83
2018-02-04T04:29:54.206Z,61.80
2018-02-04T04:30:25.830Z,61.81
2018-02-04T04:30:57.449Z,61.92
2018-02-04T04:31:29.073Z,62.03
2018-02-04T04:32:00.707Z,61.83
2018-02-04T04:32:32.341Z,61.75
2018-02-04T04:33:03.978Z,62.04
2018-02-04T04:33:35.601Z,61.86
2018-02-04T04:34:07.222Z,61.80
2018-02-04T04:34:38.850Z,61.76
2018-02-04T04:35:10.469Z,61.68
2018-02-04T04:35:42.094Z,61.70
2018-02-04T04:36:13.720Z,61.73
2018-02-04T04:36:45.342Z,61.72
2018-02-04T04:37:17.026Z,61.80
2018-02-04T04:37:48.650Z,61.62
2018-02-04T04:38:20.270Z,61.75
2018-02-04T04:38:51.890Z,61.66
2018-02-04T04:39:23.517Z,61.70
2018-02-04T04:39:55.137Z,61.75
2018-02-04T04:40:26.761Z,61.75
2018-02-04T04:40:58.382Z,61.63
2018-02-04T04:41:30.003Z,61.62
2018-02-04T04:42:01.627Z,61.66
2018-02-04T04:42:33.290Z,61.51
2018-02-04T04:43:04.920Z,61.47
2018-02-04T04:43:36.546Z,61.52
2018-02-04T04:44:08.165Z,61.61
2018-02-04T04:44:39.790Z,61.49
2018-02-04T04:45:11.486Z,61.66
2018-02-04T04:45:43.110Z,61.57
2018-02-04T04:46:14.729Z,61.75
2018-02-04T04:46:46.349Z,61.62
2018-02-04T04:47:17.977Z,61.40
2018-02-04T04:47:49.647Z,61.49
2018-02-04T04:48:21.270Z,61.65
2018-02-04T04:48:52.902Z,61.64
2018-02-04T04:49:24.526Z,61.71
2018-02-04T04:49:56.290Z,61.63
2018-02-04T04:50:27.917Z,61.60
2018-02-04T04:50:59.573Z,61.53
2018-02-04T04:51:31.198Z,61.74
2018-02-04T04:52:02.826Z,61.63
2018-02-04T04:52:34.474Z,61.73
2018-02-04T04:53:06.093Z,61.46
2018-02-04T04:53:37.722Z,61.50
2018-02-04T04:54:09.341Z,61.44
2018-02-04T04:54:41.005Z,61.54
2018-02-04T04:55:12.625Z,61.53
2018-02-04T04:55:44.254Z,61.48
2018-02-04T04:56:15.877Z,61.67
2018-02-04T04:56:47.530Z,61.56
2018-02-04T04:57:19.170Z,61.54
2018-02-04T04:57:50.795Z,61.60
2018-02-04T04:58:22.426Z,61.46
2018-02-04T04:58:54.057Z,61.49
2018-02-04T04:59:25.722Z,61.43
2018-02-04T04:59:57.377Z,61.51
2018-02-04T05:00:29.066Z,61.50
2018-02-04T05:01:00.694Z,61.50
2018-02-04T05:01:32.322Z,61.40
2018-02-04T05:02:03.950Z,61.35
2018-02-04T05:02:35.573Z,61.37
2018-02-04T05:03:07.194Z,61.31
2018-02-04T05:03:38.818Z,61.37
2018-02-04T05:04:10.446Z,61.37
2018-02-04T05:04:42.074Z,61.53
2018-02-04T05:05:13.693Z,61.31
2018-02-04T05:05:45.356Z,61.32
2018-02-04T05:06:16.986Z,61.49
2018-02-04T05:06:48.605Z,61.39
2018-02-04T05:07:20.226Z,61.42
2018-02-04T05:07:51.850Z,61.39
2018-02-04T05:08:23.477Z,61.44
2018-02-04T05:08:55.101Z,61.40
2018-02-04T05:09:26.721Z,61.37
2018-02-04T05:09:58.374Z,61.49
2018-02-04T05:10:29.994Z,61.22
2018-02-04T05:11:01.657Z,61.26
2018-02-04T05:11:33.282Z,61.35
2018-02-04T05:12:04.910Z,61.57
2018-02-04T05:12:36.542Z,61.36
2018-02-04T05:13:08.165Z,61.41
2018-02-04T05:13:39.785Z,61.42
2018-02-04T05:14:11.409Z,61.23
2018-02-04T05:14:43.084Z,61.32
2018-02-04T05:15:14.713Z,61.12
2018-02-04T05:15:46.336Z,61.21
2018-02-04T05:16:17.966Z,61.20
2018-02-04T05:16:49.589Z,61.20
2018-02-04T05:17:21.213Z,61.25
2018-02-04T05:17:52.832Z,61.34
2018-02-04T05:18:24.453Z,61.09
2018-02-04T05:18:56.078Z,61.25
2018-02-04T05:19:27.701Z,61.01
2018-02-04T05:19:59.366Z,61.21
2018-02-04T05:20:30.994Z,61.10
2018-02-04T05:21:02.618Z,61.14
2018-02-04T05:21:34.237Z,61.17
2018-02-04T05:22:05.906Z,61.24
2018-02-04T05:22:37.533Z,61.24
2018-02-04T05:23:09.158Z,61.27
2018-02-04T05:23:40.792Z,61.28
2018-02-04T05:24:12.412Z,61.43
2018-02-04T05:24:44.037Z,61.28
2018-02-04T05:25:15.658Z,61.22
2018-02-04T05:25:47.277Z,61.31
2018-02-04T05:26:18.926Z,61.28
2018-02-04T05:26:50.606Z,61.31
2018-02-04T05:27:22.257Z,61.49
2018-02-04T05:27:53.920Z,61.34
2018-02-04T05:28:25.545Z,61.26
2018-02-04T05:28:57.174Z,61.18
2018-02-04T05:29:28.797Z,61.56
2018-02-04T05:30:00.482Z,61.62
2018-02-04T05:30:32.105Z,61.74
2018-02-04T05:31:03.726Z,61.67
2018-02-04T05:31:35.353Z,61.71
2018-02-04T05:32:06.982Z,61.93
2018-02-04T05:32:38.600Z,61.58
2018-02-04T05:33:10.221Z,61.83
2018-02-04T05:33:41.842Z,61.81
2018-02-04T05:34:13.461Z,61.96
2018-02-04T05:34:45.091Z,62.16
2018-02-04T05:35:16.753Z,61.83
2018-02-04T05:35:48.391Z,61.79
2018-02-04T05:36:20.013Z,61.92
2018-02-04T05:36:51.677Z,61.99
2018-02-04T05:37:23.305Z,61.92
2018-02-04T05:37:54.933Z,61.97
2018-02-04T05:38:26.561Z,62.11
2018-02-04T05:38:58.186Z,62.17
2018-02-04T05:39:29.809Z,61.80
2018-02-04T05:40:01.438Z,62.54
2018-02-04T05:40:33.066Z,61.96
2018-02-04T05:41:04.694Z,61.98
2018-02-04T05:41:36.321Z,61.98
2018-02-04T05:42:07.942Z,62.39
2018-02-04T05:42:39.563Z,62.30
2018-02-04T05:43:11.186Z,62.26
2018-02-04T05:43:42.865Z,62.45
2018-02-04T05:44:14.485Z,62.47
2018-02-04T05:44:46.109Z,62.60
2018-02-04T05:45:17.738Z,62.97
2018-02-04T05:45:49.361Z,62.51
2018-02-04T05:46:21.010Z,62.64
2018-02-04T05:46:52.650Z,62.73
2018-02-04T05:47:24.289Z,62.53
2018-02-04T05:47:55.912Z,62.60
2018-02-04T05:48:27.557Z,62.78
2018-02-04T05:48:59.208Z,62.68
2018-02-04T05:49:30.841Z,62.66
2018-02-04T05:50:02.494Z,62.66
2018-02-04T05:50:34.188Z,62.65
2018-02-04T05:51:05.825Z,62.63
2018-02-04T05:51:37.458Z,62.69
2018-02-04T05:52:09.082Z,62.73
2018-02-04T05:52:40.702Z,62.64
2018-02-04T05:53:12.373Z,62.73
2018-02-04T05:53:43.998Z,62.98
2018-02-04T05:54:15.641Z,62.82
2018-02-04T05:54:47.281Z,63.06
2018-02-04T05:55:18.913Z,62.86
2018-02-04T05:55:50.542Z,62.97
2018-02-04T05:56:22.167Z,62.85
2018-02-04T05:56:53.790Z,63.47
2018-02-04T05:57:25.425Z,63.21
2018-02-04T05:57:57.049Z,62.85
2018-02-04T05:58:28.720Z,63.20
2018-02-04T05:59:00.341Z,62.97
2018-02-04T05:59:31.966Z,63.01
2018-02-04T06:00:03.585Z,62.99
2018-02-04T06:00:35.225Z,62.92
2018-02-04T06:01:06.850Z,62.94
2018-02-04T06:01:38.474Z,62.83
2018-02-04T06:02:10.102Z,62.87
2018-02-04T06:02:41.721Z,63.02
2018-02-04T06:03:13.345Z,63.21
2018-02-04T06:03:45.022Z,63.49
2018-02-04T06:04:16.649Z,63.39
2018-02-04T06:04:48.270Z,64.09
2018-02-04T06:05:19.893Z,63.50
2018-02-04T06:05:51.518Z,63.22
2018-02-04T06:06:23.146Z,63.41
2018-02-04T06:06:54.765Z,63.39
2018-02-04T06:07:26.385Z,63.33
2018-02-04T06:07:58.009Z,63.74
2018-02-04T06:08:29.642Z,63.91
2018-02-04T06:09:01.313Z,64.13
2018-02-04T06:09:32.933Z,63.80
2018-02-04T06:10:04.562Z,63.90
2018-02-04T06:10:36.284Z,64.03
2018-02-04T06:11:07.881Z,63.56
2018-02-04T06:11:39.514Z,63.77
2018-02-04T06:12:11.138Z,63.58
2018-02-04T06:12:42.766Z,63.82
2018-02-04T06:13:14.394Z,63.79
2018-02-04T06:13:46.014Z,63.72
2018-02-04T06:14:17.646Z,63.59
2018-02-04T06:14:49.274Z,63.71
2018-02-04T06:15:20.938Z,63.78
2018-02-04T06:15:52.566Z,64.19
2018-02-04T06:16:24.189Z,63.74
2018-02-04T06:16:55.878Z,63.58
2018-02-04T06:17:27.505Z,63.93
2018-02-04T06:17:59.129Z,63.70
2018-02-04T06:18:30.754Z,63.72
2018-02-04T06:19:02.382Z,63.52
2018-02-04T06:19:34.030Z,63.37
2018-02-04T06:20:05.682Z,63.50
2018-02-04T06:20:37.329Z,63.46
2018-02-04T06:21:08.969Z,63.69
2018-02-04T06:21:40.613Z,63.51
2018-02-04T06:22:12.306Z,63.38
2018-02-04T06:22:43.946Z,63.46
2018-02-04T06:23:15.598Z,63.45
2018-02-04T06:23:47.238Z,63.39
2018-02-04T06:24:18.890Z,63.24
2018-02-04T06:24:50.568Z,63.29
2018-02-04T06:25:22.292Z,63.38
2018-02-04T06:25:54.026Z,63.34
2018-02-04T06:26:25.738Z,63.39
2018-02-04T06:26:57.366Z,63.22
2018-02-04T06:27:29.027Z,63.29
2018-02-04T06:28:00.669Z,63.17
2018-02-04T06:28:32.293Z,63.11
2018-02-04T06:29:03.922Z,63.00
2018-02-04T06:29:35.579Z,63.05
2018-02-04T06:30:07.198Z,63.09
2018-02-04T06:30:38.826Z,63.01
2018-02-04T06:31:10.494Z,62.88
2018-02-04T06:31:42.122Z,63.15
2018-02-04T06:32:13.745Z,63.11
2018-02-04T06:32:45.393Z,62.84
2018-02-04T06:33:17.037Z,62.90
2018-02-04T06:33:48.702Z,62.86
2018-02-04T06:34:20.422Z,62.87
2018-02-04T06:34:52.070Z,63.01
2018-02-04T06:35:23.742Z,62.96
2018-02-04T06:35:55.350Z,63.01
2018-02-04T06:36:26.969Z,62.98
2018-02-04T06:36:58.598Z,62.95
2018-02-04T06:37:30.226Z,62.72
2018-02-04T06:38:01.853Z,62.85
2018-02-04T06:38:33.531Z,63.16
2018-02-04T06:39:05.157Z,63.20
2018-02-04T06:39:36.821Z,62.88
2018-02-04T06:40:08.446Z,63.00
2018-02-04T06:40:40.073Z,63.07
2018-02-04T06:41:11.699Z,62.98
2018-02-04T06:41:43.322Z,63.20
2018-02-04T06:42:14.945Z,63.10
2018-02-04T06:42:46.608Z,63.04
2018-02-04T06:43:18.229Z,62.94
2018-02-04T06:43:49.890Z,63.30
2018-02-04T06:44:21.513Z,64.20
2018-02-04T06:44:53.138Z,63.03
2018-02-04T06:45:24.764Z,63.31
2018-02-04T06:45:56.417Z,63.57
2018-02-04T06:46:28.037Z,64.06
2018-02-04T06:46:59.658Z,63.77
2018-02-04T06:47:31.277Z,63.80